Time;durP1;ratioP1;P1;durP2;ratioP2;P2;SDS_P1;SDS_P2;PMS_P1;PMS_P2;Temp;Humidity;BMP_temperature;BMP_pressure;BME280_temperature;BME280_humidity;BME280_pressure;Samples;Min_cycle;Max_cycle;Signal;HPM_P1;HPM_P2
2022/04/02 00:00:55;;;;;;;28.27;18.92;;;0.90;99.90;;;;;;5046845;28;20021;-52
2022/04/02 00:03:22;;;;;;;29.05;17.70;;;0.90;99.90;;;;;;5047080;28;20796;-53
2022/04/02 00:05:48;;;;;;;31.03;18.83;;;0.90;99.90;;;;;;5048012;28;20041;-54
2022/04/02 00:08:14;;;;;;;34.85;20.48;;;0.90;99.90;;;;;;5048063;28;20774;-53
2022/04/02 00:10:39;;;;;;;36.05;20.02;;;0.90;99.90;;;;;;5047047;28;20029;-51
2022/04/02 00:13:05;;;;;;;33.67;19.80;;;0.90;99.90;;;;;;5048235;28;20108;-50
2022/04/02 00:15:31;;;;;;;33.50;19.08;;;0.80;99.90;;;;;;5046667;28;20016;-52
2022/04/02 00:17:57;;;;;;;33.85;19.95;;;0.90;99.90;;;;;;5046986;28;20020;-53
2022/04/02 00:20:22;;;;;;;32.30;19.60;;;0.80;99.90;;;;;;5048167;28;20438;-51
2022/04/02 00:25:32;;;;;;;32.97;19.65;;;0.90;99.90;;;;;;5045452;28;20047;-52
2022/04/02 00:27:58;;;;;;;30.30;18.52;;;0.90;99.90;;;;;;5047636;28;20021;-51
2022/04/02 00:30:24;;;;;;;32.38;18.38;;;0.90;99.90;;;;;;5048000;28;20029;-51
2022/04/02 00:32:50;;;;;;;34.67;20.25;;;0.80;99.90;;;;;;5046692;28;20583;-52
2022/04/02 00:35:16;;;;;;;35.17;18.77;;;0.80;99.90;;;;;;5047713;28;20021;-53
2022/04/02 00:37:41;;;;;;;32.55;18.02;;;0.80;99.90;;;;;;5047784;28;20028;-51
2022/04/02 00:40:08;;;;;;;33.22;18.13;;;0.80;99.90;;;;;;5047376;28;20025;-52
2022/04/02 00:42:34;;;;;;;34.53;19.20;;;0.80;99.90;;;;;;5029836;28;20481;-53
2022/04/02 00:45:00;;;;;;;26.70;16.80;;;0.90;99.90;;;;;;5047326;28;20029;-51
2022/04/02 00:47:25;;;;;;;26.70;16.42;;;0.90;99.90;;;;;;5047105;28;20017;-52
2022/04/02 00:49:53;;;;;;;28.50;17.92;;;0.90;99.90;;;;;;5045921;28;20033;-52
2022/04/02 00:52:19;;;;;;;31.02;17.63;;;0.90;99.90;;;;;;5047589;28;20025;-53
2022/04/02 00:54:48;;;;;;;30.40;18.67;;;0.80;99.90;;;;;;5048303;28;20029;-51
2022/04/02 00:57:14;;;;;;;29.80;18.63;;;0.90;99.90;;;;;;5047953;28;20536;-53
2022/04/02 00:59:39;;;;;;;28.92;18.88;;;0.80;99.90;;;;;;5047809;28;20110;-52
2022/04/02 01:02:05;;;;;;;30.30;18.67;;;0.80;99.90;;;;;;5048281;28;20060;-52
2022/04/02 01:04:31;;;;;;;32.92;18.92;;;0.80;99.90;;;;;;5047933;28;20259;-53
2022/04/02 01:06:59;;;;;;;27.05;18.25;;;0.80;99.90;;;;;;5048281;28;20059;-51
2022/04/02 01:09:25;;;;;;;26.65;18.60;;;0.80;99.90;;;;;;5047838;28;20936;-52
2022/04/02 01:11:52;;;;;;;30.45;16.65;;;0.80;99.90;;;;;;5048324;28;20379;-53
2022/04/02 01:14:18;;;;;;;27.90;17.90;;;0.80;99.90;;;;;;5046664;28;20113;-51
2022/04/02 01:16:44;;;;;;;27.10;17.63;;;0.80;99.90;;;;;;5048003;28;20033;-53
2022/04/02 01:19:10;;;;;;;27.00;17.60;;;0.90;99.90;;;;;;5047721;28;20048;-54
2022/04/02 01:21:36;;;;;;;23.85;16.98;;;0.80;99.90;;;;;;5047532;28;20013;-53
2022/04/02 01:24:03;;;;;;;26.92;18.42;;;0.90;99.90;;;;;;5047697;28;20028;-51
2022/04/02 01:26:29;;;;;;;28.90;18.27;;;0.90;99.90;;;;;;5047757;28;20075;-51
2022/04/02 01:28:57;;;;;;;24.85;17.48;;;0.90;99.90;;;;;;5039331;28;20471;-55
2022/04/02 01:31:24;;;;;;;30.27;18.38;;;0.90;99.90;;;;;;5046057;28;20017;-51
2022/04/02 01:33:50;;;;;;;28.40;19.30;;;0.80;99.90;;;;;;5047828;28;20084;-53
2022/04/02 01:36:16;;;;;;;27.73;17.67;;;0.80;99.90;;;;;;5047913;28;20063;-55
2022/04/02 01:38:42;;;;;;;24.05;16.90;;;0.80;99.90;;;;;;5047884;28;20492;-51
2022/04/02 01:41:08;;;;;;;28.33;18.48;;;0.70;99.90;;;;;;5047990;28;20025;-53
2022/04/02 01:43:34;;;;;;;27.10;18.40;;;0.70;99.90;;;;;;5046450;28;20036;-54
2022/04/02 01:46:01;;;;;;;31.23;19.70;;;0.80;99.90;;;;;;5046739;28;20469;-53
2022/04/02 01:48:30;;;;;;;29.00;19.85;;;0.70;99.90;;;;;;5047926;28;20063;-52
2022/04/02 01:50:56;;;;;;;31.65;20.30;;;0.70;99.90;;;;;;5047570;28;20474;-54
2022/04/02 01:53:24;;;;;;;28.85;18.95;;;0.70;99.90;;;;;;5047814;28;20033;-52
2022/04/02 01:55:50;;;;;;;26.90;19.55;;;0.70;99.90;;;;;;5047494;28;20174;-52
2022/04/02 01:58:16;;;;;;;30.83;19.85;;;0.70;99.90;;;;;;5047184;28;20083;-53
2022/04/02 02:00:43;;;;;;;31.42;20.63;;;0.70;99.90;;;;;;5047833;28;20513;-52
2022/04/02 02:03:09;;;;;;;27.88;19.75;;;0.80;99.90;;;;;;5047526;28;20033;-52
2022/04/02 02:05:35;;;;;;;33.83;19.80;;;0.70;99.90;;;;;;5047427;28;20033;-52
2022/04/02 02:08:02;;;;;;;30.25;20.10;;;0.70;99.90;;;;;;5047611;28;20116;-53
2022/04/02 02:10:28;;;;;;;30.15;18.92;;;0.70;99.90;;;;;;5047642;28;20033;-54
2022/04/02 02:12:53;;;;;;;27.00;18.85;;;0.70;99.90;;;;;;5047258;28;20082;-54
2022/04/02 02:15:19;;;;;;;31.42;19.55;;;0.70;99.90;;;;;;5047226;28;20029;-53
2022/04/02 02:17:46;;;;;;;29.77;19.55;;;0.70;99.90;;;;;;5046224;28;20374;-53
2022/04/02 02:20:13;;;;;;;31.88;18.55;;;0.60;99.90;;;;;;5047541;28;20057;-52
2022/04/02 02:22:40;;;;;;;33.92;19.58;;;0.70;99.90;;;;;;5047231;28;20105;-52
2022/04/02 02:25:07;;;;;;;30.67;20.38;;;0.50;99.90;;;;;;5046919;28;20477;-53
2022/04/02 02:27:34;;;;;;;33.05;18.80;;;0.60;99.90;;;;;;5047317;28;20041;-52
2022/04/02 02:29:59;;;;;;;31.07;21.10;;;0.60;99.90;;;;;;5047324;28;20142;-51
2022/04/02 02:32:25;;;;;;;34.03;19.88;;;0.60;99.90;;;;;;5046108;28;20686;-52
2022/04/02 02:37:37;;;;;;;28.27;19.73;;;0.60;99.90;;;;;;5047671;28;20112;-53
2022/04/02 02:40:04;;;;;;;31.27;20.60;;;0.50;99.90;;;;;;5047048;28;20108;-55
2022/04/02 02:42:31;;;;;;;;;;;0.50;99.90;;;;;;5047465;28;20037;-53
2022/04/02 02:44:57;;;;;;;29.20;19.20;;;0.50;99.90;;;;;;5047138;28;19913;-53
2022/04/02 02:47:23;;;;;;;31.20;20.35;;;0.50;99.90;;;;;;5047192;28;20084;-52
2022/04/02 02:49:49;;;;;;;31.95;20.77;;;0.50;99.90;;;;;;5047034;28;20144;-53
2022/04/02 02:52:15;;;;;;;33.38;20.90;;;0.50;99.90;;;;;;5045805;28;20801;-53
2022/04/02 02:54:40;;;;;;;35.60;21.70;;;0.50;99.90;;;;;;5046977;28;20033;-51
2022/04/02 02:57:06;;;;;;;34.90;20.95;;;0.50;99.90;;;;;;5050112;28;20399;-53
2022/04/02 02:59:34;;;;;;;41.47;23.02;;;0.50;99.90;;;;;;5050412;28;20064;-53
2022/04/02 03:02:00;;;;;;;42.97;21.30;;;0.50;99.90;;;;;;5049742;28;20041;-53
2022/04/02 03:04:26;;;;;;;39.47;22.77;;;0.50;99.90;;;;;;5050705;28;20095;-54
2022/04/02 03:06:51;;;;;;;38.53;22.23;;;0.50;99.90;;;;;;5050734;28;20029;-50
2022/04/02 03:09:17;;;;;;;43.10;23.58;;;0.50;99.90;;;;;;5050263;28;20036;-52
2022/04/02 03:11:43;;;;;;;43.78;24.27;;;0.50;99.90;;;;;;5051222;28;20071;-53
2022/04/02 03:14:09;;;;;;;47.13;22.67;;;0.50;99.90;;;;;;5051414;28;20037;-52
2022/04/02 03:16:36;;;;;;;35.50;22.02;;;0.50;99.90;;;;;;5050855;28;20029;-51
2022/04/02 03:19:02;;;;;;;35.90;20.52;;;0.50;99.90;;;;;;5032123;28;20496;-51
2022/04/02 03:21:31;;;;;;;35.83;21.77;;;0.40;99.90;;;;;;5048889;28;20021;-52
2022/04/02 03:23:57;;;;;;;35.05;22.10;;;0.40;99.90;;;;;;5050273;28;20279;-52
2022/04/02 03:26:24;;;;;;;35.45;21.73;;;0.40;99.90;;;;;;5050323;28;20029;-51
2022/04/02 03:28:49;;;;;;;37.42;22.83;;;0.40;99.90;;;;;;5050277;28;20140;-51
2022/04/02 03:31:15;;;;;;;37.08;22.35;;;0.40;99.90;;;;;;5050079;28;20132;-54
2022/04/02 03:33:41;;;;;;;38.38;22.23;;;0.40;99.90;;;;;;5050109;28;20059;-52
2022/04/02 03:36:09;;;;;;;40.33;23.10;;;0.40;99.90;;;;;;5050127;28;20442;-53
2022/04/02 03:38:37;;;;;;;33.60;21.10;;;0.40;99.90;;;;;;5048625;28;20040;-52
2022/04/02 03:41:04;;;;;;;38.75;22.45;;;0.40;99.90;;;;;;5048639;28;20074;-52
2022/04/02 03:43:31;;;;;;;38.50;23.88;;;0.50;99.90;;;;;;5049944;28;20037;-52
2022/04/02 03:47:08;;;;;;;35.38;23.17;;;0.50;99.90;;;;;;5049890;28;20389;-52
2022/04/02 03:48:43;;;;;;;38.63;20.63;;;0.50;99.90;;;;;;5049548;28;20044;-53
2022/04/02 03:51:09;;;;;;;38.92;23.00;;;0.50;99.90;;;;;;5050451;28;20061;-52
2022/04/02 03:53:35;;;;;;;39.97;24.10;;;0.50;99.90;;;;;;5050142;28;20025;-53
2022/04/02 03:56:01;;;;;;;38.13;23.17;;;0.50;99.90;;;;;;5049098;28;20483;-52
2022/04/02 03:58:27;;;;;;;36.45;22.63;;;0.40;99.90;;;;;;5049895;28;20052;-52
2022/04/02 04:00:53;;;;;;;42.20;24.37;;;0.40;99.90;;;;;;5050023;28;20025;-53
2022/04/02 04:03:19;;;;;;;40.67;24.52;;;0.40;99.90;;;;;;5050432;28;20126;-55
2022/04/02 04:05:45;;;;;;;39.28;23.70;;;0.40;99.90;;;;;;5050302;28;20036;-54
2022/04/02 04:08:11;;;;;;;36.58;23.52;;;0.50;99.90;;;;;;5049939;28;20032;-51
2022/04/02 04:10:38;;;;;;;36.60;23.65;;;0.40;99.90;;;;;;5050271;28;20036;-52
2022/04/02 04:13:03;;;;;;;40.75;24.40;;;0.50;99.90;;;;;;5050041;28;20494;-53
2022/04/02 04:15:29;;;;;;;41.85;23.17;;;0.40;99.90;;;;;;5050126;28;20045;-52
2022/04/02 04:17:57;;;;;;;39.72;23.95;;;0.40;99.90;;;;;;5049732;28;20082;-51
2022/04/02 04:20:23;;;;;;;39.63;24.58;;;0.40;99.90;;;;;;5048732;28;20039;-54
2022/04/02 04:22:48;;;;;;;42.88;23.35;;;0.40;99.90;;;;;;5047932;28;20021;-53
2022/04/02 04:25:14;;;;;;;38.25;23.95;;;0.40;99.90;;;;;;5049724;28;20033;-52
2022/04/02 04:27:40;;;;;;;39.63;23.23;;;0.40;99.90;;;;;;5049573;28;20397;-52
2022/04/02 04:30:07;;;;;;;38.40;23.30;;;0.40;99.90;;;;;;5049240;28;20478;-50
2022/04/02 04:32:33;;;;;;;30.30;19.80;;;0.40;99.90;;;;;;5049482;28;20056;-53
2022/04/02 04:34:59;;;;;;;33.70;21.88;;;0.40;99.90;;;;;;5049223;28;20033;-51
2022/04/02 04:37:26;;;;;;;32.47;20.08;;;0.30;99.90;;;;;;5049792;28;20025;-52
2022/04/02 04:39:52;;;;;;;34.22;19.75;;;0.30;99.90;;;;;;5047667;28;20035;-51
2022/04/02 04:42:17;;;;;;;36.72;22.23;;;0.40;99.90;;;;;;5047775;28;20037;-52
2022/04/02 04:44:43;;;;;;;35.17;21.13;;;0.40;99.90;;;;;;5049730;28;20107;-52
2022/04/02 04:47:10;;;;;;;29.67;19.13;;;0.40;99.90;;;;;;5049076;28;20033;-54
2022/04/02 04:49:36;;;;;;;33.33;18.98;;;0.50;99.90;;;;;;5048817;28;20029;-54
2022/04/02 04:52:03;;;;;;;32.88;19.15;;;0.40;99.90;;;;;;5048063;28;20120;-52
2022/04/02 04:54:29;;;;;;;30.67;18.80;;;0.40;99.90;;;;;;5048907;28;20028;-51
2022/04/02 04:56:55;;;;;;;33.28;20.45;;;0.40;99.90;;;;;;5048591;28;20029;-53
2022/04/02 04:59:21;;;;;;;29.20;20.05;;;0.40;99.90;;;;;;5048627;28;20057;-51
2022/04/02 05:01:47;;;;;;;31.65;18.30;;;0.40;99.90;;;;;;5048672;28;20035;-54
2022/04/02 05:04:13;;;;;;;27.25;18.40;;;0.40;99.90;;;;;;5048508;28;20131;-53
2022/04/02 05:06:40;;;;;;;35.03;19.90;;;0.40;99.90;;;;;;5048789;28;20095;-51
2022/04/02 05:09:06;;;;;;;28.25;18.73;;;0.40;99.90;;;;;;5047138;28;20450;-53
2022/04/02 05:11:32;;;;;;;27.35;17.75;;;0.40;99.90;;;;;;5048672;28;20114;-53
2022/04/02 05:13:59;;;;;;;29.87;17.47;;;0.40;99.90;;;;;;5048715;28;20039;-53
2022/04/02 05:16:26;;;;;;;33.88;19.02;;;0.40;99.90;;;;;;5048596;28;20140;-53
2022/04/02 05:18:52;;;;;;;27.52;18.83;;;0.40;99.90;;;;;;5048088;28;20521;-52
2022/04/02 05:21:18;;;;;;;30.00;18.30;;;0.40;99.90;;;;;;5048358;28;20028;-52
2022/04/02 05:23:44;;;;;;;26.98;17.23;;;0.40;99.90;;;;;;5048736;28;20178;-52
2022/04/02 05:26:10;;;;;;;31.52;18.73;;;0.30;99.90;;;;;;5048559;28;20547;-54
2022/04/02 05:28:36;;;;;;;28.92;17.83;;;0.40;99.90;;;;;;5047272;28;20024;-53
2022/04/02 05:31:03;;;;;;;33.88;18.85;;;0.40;99.90;;;;;;5048723;28;20029;-52
2022/04/02 05:33:30;;;;;;;28.05;17.48;;;0.40;99.90;;;;;;5048073;28;20029;-52
2022/04/02 05:35:57;;;;;;;26.33;16.80;;;0.40;99.90;;;;;;5047261;28;20082;-53
2022/04/02 05:38:23;;;;;;;27.00;17.45;;;0.40;99.90;;;;;;5047655;28;20066;-52
2022/04/02 05:40:49;;;;;;;30.77;18.88;;;0.40;99.90;;;;;;5047684;28;20024;-51
2022/04/02 05:43:15;;;;;;;28.75;18.90;;;0.40;99.90;;;;;;5047351;28;20024;-53
2022/04/02 05:45:41;;;;;;;32.42;18.20;;;0.50;99.90;;;;;;5048428;28;20060;-51
2022/04/02 05:48:07;;;;;;;29.92;18.88;;;0.50;99.90;;;;;;5048237;28;20031;-52
2022/04/02 05:50:33;;;;;;;29.27;18.80;;;0.50;99.90;;;;;;5048311;28;20563;-52
2022/04/02 05:53:00;;;;;;;30.10;18.75;;;0.50;99.90;;;;;;5048340;28;20039;-53
2022/04/02 05:55:26;;;;;;;30.55;19.52;;;0.50;99.90;;;;;;5048287;28;20029;-51
2022/04/02 05:57:52;;;;;;;27.90;17.67;;;0.50;99.90;;;;;;5047529;28;20035;-52
2022/04/02 06:00:18;;;;;;;35.55;20.85;;;0.50;99.90;;;;;;5047101;28;20756;-53
2022/04/02 06:02:45;;;;;;;33.25;20.10;;;0.60;99.90;;;;;;5047302;28;20029;-53
2022/04/02 06:05:13;;;;;;;30.95;19.52;;;0.50;99.90;;;;;;5046845;28;20029;-51
2022/04/02 06:07:40;;;;;;;33.58;19.30;;;0.50;99.90;;;;;;5047229;28;20056;-53
2022/04/02 06:10:06;;;;;;;34.42;20.33;;;0.50;99.90;;;;;;5046064;28;20413;-53
2022/04/02 06:12:32;;;;;;;35.55;20.65;;;0.50;99.90;;;;;;5046965;28;20503;-53
2022/04/02 06:14:59;;;;;;;34.88;22.27;;;0.50;99.90;;;;;;5047993;28;20427;-52
2022/04/02 06:17:25;;;;;;;40.55;25.13;;;0.50;99.90;;;;;;5046634;28;20041;-52
2022/04/02 06:19:51;;;;;;;44.75;27.05;;;0.50;99.90;;;;;;5047744;28;20443;-53
2022/04/02 06:22:17;;;;;;;53.90;29.73;;;0.50;99.90;;;;;;5047730;28;20105;-52
2022/04/02 06:24:43;;;;;;;49.25;28.33;;;0.60;99.90;;;;;;5045683;28;20033;-52
2022/04/02 06:27:09;;;;;;;48.97;26.50;;;0.50;99.90;;;;;;5046675;28;20466;-52
2022/04/02 06:29:35;;;;;;;49.00;26.58;;;0.40;99.90;;;;;;5046337;28;20037;-51
2022/04/02 06:32:01;;;;;;;42.72;25.60;;;0.50;99.90;;;;;;5049389;28;20055;-52
2022/04/02 06:34:26;;;;;;;47.63;25.75;;;0.50;99.90;;;;;;5050797;28;20032;-53
2022/04/02 06:36:54;;;;;;;42.03;24.85;;;0.50;99.90;;;;;;5050335;28;20025;-53
2022/04/02 06:39:20;;;;;;;42.58;24.38;;;0.50;99.90;;;;;;5049256;28;20071;-52
2022/04/02 06:41:46;;;;;;;42.75;24.67;;;0.50;99.90;;;;;;5049299;28;20060;-53
2022/04/02 06:44:13;;;;;;;46.03;25.87;;;0.50;99.90;;;;;;5050955;28;20074;-52
2022/04/02 06:46:39;;;;;;;44.22;24.15;;;0.50;99.90;;;;;;5052145;28;20542;-53
2022/04/02 06:49:06;;;;;;;43.17;24.73;;;0.40;99.90;;;;;;5051685;28;20691;-54
2022/04/02 06:51:33;;;;;;;38.63;23.02;;;0.40;99.90;;;;;;5051982;28;20548;-55
2022/04/02 06:53:59;;;;;;;50.20;27.33;;;0.40;99.90;;;;;;5051937;28;20108;-53
2022/04/02 06:56:25;;;;;;;47.00;24.40;;;0.40;99.90;;;;;;5050530;28;20581;-51
2022/04/02 06:58:51;;;;;;;41.42;25.42;;;0.40;99.90;;;;;;5051117;28;20056;-52
2022/04/02 07:01:17;;;;;;;37.30;24.45;;;0.40;99.90;;;;;;5051786;28;20354;-53
2022/04/02 07:03:43;;;;;;;38.13;23.67;;;0.40;99.90;;;;;;5051491;28;20029;-52
2022/04/02 07:06:09;;;;;;;38.60;23.58;;;0.40;99.90;;;;;;5050380;28;20087;-50
2022/04/02 07:08:37;;;;;;;40.38;24.33;;;0.40;99.90;;;;;;5051244;28;20033;-52
2022/04/02 07:11:05;;;;;;;45.95;27.00;;;0.50;99.90;;;;;;5051493;28;20112;-52
2022/04/02 07:13:31;;;;;;;46.13;27.65;;;0.40;99.90;;;;;;5083974;28;20392;-52
2022/04/02 07:15:57;;;;;;;50.42;25.15;;;0.50;99.90;;;;;;5049906;28;20021;-53
2022/04/02 07:18:25;;;;;;;43.83;26.35;;;0.50;99.90;;;;;;5049857;28;20051;-53
2022/04/02 07:20:53;;;;;;;40.47;25.15;;;0.50;99.90;;;;;;5050839;28;20031;-52
2022/04/02 07:23:20;;;;;;;40.47;24.95;;;0.40;99.90;;;;;;5066001;28;20548;-52
2022/04/02 07:25:48;;;;;;;38.42;23.02;;;0.40;99.90;;;;;;5051364;28;20128;-53
2022/04/02 07:28:15;;;;;;;35.50;22.33;;;0.40;99.90;;;;;;5050724;28;20076;-51
2022/04/02 07:30:41;;;;;;;39.80;23.88;;;0.40;99.90;;;;;;5028674;28;20125;-53
2022/04/02 07:33:07;;;;;;;41.42;23.55;;;0.40;99.90;;;;;;5028436;28;20112;-53
2022/04/02 07:35:55;;;;;;;40.78;24.92;;;0.40;99.90;;;;;;5029606;28;20033;-51
2022/04/02 07:38:28;;;;;;;38.65;22.98;;;0.50;99.90;;;;;;5028616;28;20025;-53
2022/04/02 07:41:25;;;;;;;37.72;22.77;;;0.50;99.90;;;;;;5028501;28;20022;-51
2022/04/02 07:44:19;;;;;;;35.67;22.65;;;0.50;99.90;;;;;;5029096;28;20037;-52
2022/04/02 07:46:47;;;;;;;35.97;22.13;;;0.50;99.90;;;;;;5042801;28;20625;-52
2022/04/02 07:49:22;;;;;;;41.42;23.58;;;0.50;99.90;;;;;;5049553;28;20040;-52
2022/04/02 07:51:53;;;;;;;33.83;20.40;;;0.50;99.90;;;;;;5049347;28;20565;-52
2022/04/02 07:54:23;;;;;;;40.13;22.40;;;0.50;99.90;;;;;;5049628;28;20029;-52
2022/04/02 07:56:51;;;;;;;37.47;21.75;;;0.50;99.90;;;;;;5050185;28;20111;-51
2022/04/02 07:59:35;;;;;;;33.08;20.80;;;0.50;99.90;;;;;;5049600;28;20047;-52
2022/04/02 08:02:04;;;;;;;36.97;21.73;;;0.50;99.90;;;;;;5049898;28;20056;-53
2022/04/02 08:04:30;;;;;;;48.90;24.70;;;0.50;99.90;;;;;;5048099;28;20025;-52
2022/04/02 08:06:57;;;;;;;40.65;21.90;;;0.60;99.90;;;;;;5047464;28;20032;-54
2022/04/02 08:09:25;;;;;;;32.13;19.33;;;0.50;99.90;;;;;;5048936;28;20131;-53
2022/04/02 08:11:52;;;;;;;33.25;19.55;;;0.50;99.90;;;;;;5049557;28;20033;-53
2022/04/02 08:14:18;;;;;;;29.27;18.23;;;0.50;99.90;;;;;;5049064;28;20063;-50
2022/04/02 08:16:44;;;;;;;32.75;20.92;;;0.50;99.90;;;;;;5049258;28;20719;-52
2022/04/02 08:19:11;;;;;;;31.92;19.95;;;0.50;99.90;;;;;;5064191;28;20471;-52
2022/04/02 08:21:37;;;;;;;31.80;19.35;;;0.60;99.90;;;;;;5049604;28;20053;-52
2022/04/02 08:24:03;;;;;;;33.20;20.00;;;0.60;99.90;;;;;;5049613;28;20048;-52
2022/04/02 08:26:56;;;;;;;30.70;17.85;;;0.70;99.90;;;;;;5049276;28;20341;-51
2022/04/02 08:29:46;;;;;;;29.02;18.33;;;0.60;99.90;;;;;;5042544;28;20072;-52
2022/04/02 08:32:49;;;;;;;36.10;21.33;;;0.70;99.90;;;;;;5048549;28;20079;-54
2022/04/02 08:35:25;;;;;;;32.10;18.95;;;0.70;99.90;;;;;;5046548;28;20021;-52
2022/04/02 08:38:06;;;;;;;33.25;18.92;;;0.80;99.90;;;;;;5046561;28;20059;-53
2022/04/02 08:40:55;;;;;;;37.90;20.42;;;0.80;99.90;;;;;;5044535;28;20064;-51
2022/04/02 08:43:45;;;;;;;33.83;18.73;;;0.80;99.90;;;;;;5043636;28;20028;-52
2022/04/02 08:46:20;;;;;;;30.88;17.98;;;0.80;99.90;;;;;;5047287;28;20053;-53
2022/04/02 08:48:57;;;;;;;37.00;19.77;;;0.60;99.90;;;;;;5045427;28;20500;-53
2022/04/02 08:51:29;;;;;;;30.85;18.45;;;0.70;99.90;;;;;;5049540;28;20099;-55
2022/04/02 08:54:04;;;;;;;30.55;17.50;;;0.70;99.90;;;;;;5048045;28;20036;-51
2022/04/02 08:56:37;;;;;;;31.92;18.05;;;0.70;99.90;;;;;;5049179;28;20037;-54
2022/04/02 08:59:07;;;;;;;36.20;18.20;;;0.80;99.90;;;;;;5048632;28;20523;-52
2022/04/02 09:02:04;;;;;;;33.95;19.02;;;0.80;99.90;;;;;;5049747;28;20029;-52
2022/04/02 09:05:06;;;;;;;29.00;18.42;;;0.80;99.90;;;;;;5049001;28;20086;-53
2022/04/02 09:07:39;;;;;;;27.08;16.73;;;1.00;99.90;;;;;;5047550;28;20090;-55
2022/04/02 09:10:39;;;;;;;29.85;16.23;;;1.10;99.90;;;;;;5047519;28;20033;-52
2022/04/02 09:13:39;;;;;;;25.90;16.20;;;1.00;99.90;;;;;;5045976;28;20410;-54
2022/04/02 09:16:08;;;;;;;24.35;15.48;;;1.10;99.90;;;;;;5047680;28;20074;-53
2022/04/02 09:18:38;;;;;;;26.83;16.42;;;1.10;99.90;;;;;;5048315;28;20032;-53
2022/04/02 09:21:35;;;;;;;26.13;16.38;;;1.30;99.90;;;;;;5047409;28;20654;-54
2022/04/02 09:24:05;;;;;;;26.55;16.42;;;1.40;99.90;;;;;;5032983;28;20033;-54
2022/04/02 09:27:00;;;;;;;28.15;16.02;;;1.60;99.90;;;;;;5044479;28;20084;-51
2022/04/02 09:29:36;;;;;;;26.10;16.67;;;1.70;99.90;;;;;;5028266;28;20116;-52
2022/04/02 09:32:30;;;;;;;24.40;15.13;;;1.90;99.90;;;;;;5028868;28;20021;-52
2022/04/02 09:35:34;;;;;;;24.80;15.70;;;2.00;99.90;;;;;;5033478;28;20164;-54
2022/04/02 09:38:30;;;;;;;38.83;23.70;;;2.00;99.90;;;;;;5047609;28;20035;-53
2022/04/02 09:41:22;;;;;;;28.02;17.25;;;2.00;99.90;;;;;;5048435;28;20024;-52
2022/04/02 09:44:11;;;;;;;35.85;18.70;;;1.80;99.90;;;;;;5048218;28;20602;-54
2022/04/02 09:46:51;;;;;;;30.77;16.65;;;1.60;99.90;;;;;;5046707;28;20083;-52
2022/04/02 09:49:34;;;;;;;27.95;16.17;;;1.50;99.90;;;;;;5046486;28;20044;-53
2022/04/02 09:52:08;;;;;;;27.27;17.20;;;1.50;99.90;;;;;;5045976;28;20029;-54
2022/04/02 09:54:44;;;;;;;28.13;16.92;;;1.50;99.90;;;;;;5046659;28;20025;-52
2022/04/02 09:57:36;;;;;;;24.65;15.10;;;1.50;99.90;;;;;;5046957;28;20033;-54
2022/04/02 10:00:07;;;;;;;27.05;17.13;;;1.60;99.90;;;;;;5044663;28;20033;-52
2022/04/02 10:03:01;;;;;;;24.15;15.50;;;1.60;99.90;;;;;;5046602;28;20036;-51
2022/04/02 10:05:41;;;;;;;26.23;16.58;;;1.60;99.90;;;;;;5049651;28;20108;-52
2022/04/02 10:08:12;;;;;;;27.85;17.20;;;1.70;99.90;;;;;;5040830;28;20032;-53
2022/04/02 10:10:41;;;;;;;31.23;19.52;;;1.70;99.90;;;;;;5051447;28;20032;-54
2022/04/02 10:13:09;;;;;;;32.33;18.52;;;1.60;99.90;;;;;;5049346;28;20025;-52
2022/04/02 10:15:40;;;;;;;29.58;18.05;;;1.50;99.90;;;;;;5050148;28;20040;-51
2022/04/02 10:18:10;;;;;;;30.30;17.63;;;1.40;99.90;;;;;;5050655;28;20109;-54
2022/04/02 10:20:37;;;;;;;31.52;18.48;;;1.40;99.90;;;;;;5048558;28;20112;-52
2022/04/02 10:23:22;;;;;;;29.90;18.95;;;1.30;99.90;;;;;;5050450;28;20025;-54
2022/04/02 10:26:08;;;;;;;27.15;17.63;;;1.30;99.90;;;;;;5050094;28;20025;-52
2022/04/02 10:28:45;;;;;;;34.58;19.48;;;1.30;99.90;;;;;;5048207;28;20029;-54
2022/04/02 10:31:18;;;;;;;36.05;19.15;;;1.20;99.90;;;;;;5050483;28;20029;-53
2022/04/02 10:33:52;;;;;;;34.50;20.20;;;1.20;99.90;;;;;;5049025;28;20060;-53
2022/04/02 10:36:20;;;;;;;32.78;19.95;;;1.20;99.90;;;;;;5043368;28;20048;-51
2022/04/02 10:38:51;;;;;;;34.47;20.40;;;1.40;99.90;;;;;;5050697;28;20127;-54
2022/04/02 10:41:17;;;;;;;33.83;18.73;;;1.30;99.90;;;;;;5051738;28;20117;-51
2022/04/02 10:43:58;;;;;;;29.67;19.27;;;1.30;99.90;;;;;;5051816;28;20040;-55
2022/04/02 10:46:26;;;;;;;28.95;19.65;;;1.20;99.90;;;;;;5051345;28;20539;-53
2022/04/02 10:49:00;;;;;;;;;;;1.10;99.90;;;;;;5051985;28;20120;-54
2022/04/02 10:51:31;;;;;;;33.42;20.13;;;1.00;99.90;;;;;;5051829;28;19909;-51
2022/04/02 10:54:00;;;;;;;35.60;21.27;;;1.00;99.90;;;;;;5083699;28;20025;-52
2022/04/02 10:56:49;;;;;;;38.97;22.05;;;1.00;99.90;;;;;;5051568;28;20435;-53
2022/04/02 10:59:17;;;;;;;36.88;21.42;;;1.00;99.90;;;;;;5050975;28;20556;-54
2022/04/02 11:01:46;;;;;;;37.10;23.17;;;1.00;99.90;;;;;;5051385;28;20039;-53
2022/04/02 11:04:56;;;;;;;40.83;23.55;;;1.10;99.90;;;;;;5051017;28;20027;-54
2022/04/02 11:07:43;;;;;;;;;;;1.00;99.90;;;;;;5051741;28;20017;-52
2022/04/02 11:10:16;;;;;;;40.67;23.65;;;1.00;99.90;;;;;;5050917;28;19920;-53
2022/04/02 11:12:44;;;;;;;45.38;24.50;;;1.00;99.90;;;;;;5051400;28;20063;-52
2022/04/02 11:15:20;;;;;;;39.92;22.95;;;1.00;99.90;;;;;;5051197;28;20043;-52
2022/04/02 11:17:50;;;;;;;34.80;21.83;;;0.90;99.90;;;;;;5049883;28;20614;-54
2022/04/02 11:20:23;;;;;;;37.28;21.25;;;0.90;99.90;;;;;;5050547;28;20116;-53
2022/04/02 11:22:52;;;;;;;34.28;20.38;;;0.90;99.90;;;;;;5048579;28;20124;-54
2022/04/02 11:25:29;;;;;;;35.75;22.20;;;0.90;99.90;;;;;;5050678;28;20527;-54
2022/04/02 11:27:58;;;;;;;36.13;20.20;;;1.00;99.90;;;;;;5050645;28;20108;-52
2022/04/02 11:30:32;;;;;;;29.88;18.42;;;0.90;99.90;;;;;;5049751;28;20037;-54
2022/04/02 11:33:05;;;;;;;33.38;21.48;;;0.90;99.90;;;;;;5049419;28;20043;-53
2022/04/02 11:35:31;;;;;;;34.20;20.52;;;0.90;99.90;;;;;;5044409;28;20033;-53
2022/04/02 11:38:17;;;;;;;35.25;21.48;;;0.80;99.90;;;;;;5049466;28;20082;-54
2022/04/02 11:40:51;;;;;;;31.42;20.45;;;0.90;99.90;;;;;;5046998;28;20044;-52
2022/04/02 11:43:18;;;;;;;36.13;22.08;;;0.90;99.90;;;;;;5049165;28;20033;-53
2022/04/02 11:45:45;;;;;;;;;;;0.90;99.90;;;;;;5049510;28;20079;-54
2022/04/02 11:48:13;;;;;;;33.33;20.02;;;0.90;99.90;;;;;;5046642;28;19923;-54
2022/04/02 11:50:43;;;;;;;32.40;19.77;;;0.90;99.90;;;;;;5045720;28;20044;-54
2022/04/02 11:53:09;;;;;;;33.63;21.17;;;0.90;99.90;;;;;;5049525;28;20025;-53
2022/04/02 11:55:37;;;;;;;36.70;21.85;;;0.90;99.90;;;;;;5049003;28;20087;-52
2022/04/02 11:58:12;;;;;;;35.25;21.00;;;0.80;99.90;;;;;;5048605;28;20033;-54
2022/04/02 12:00:43;;;;;;;33.67;20.77;;;0.90;99.90;;;;;;5047473;28;20523;-54
2022/04/02 12:03:27;;;;;;;35.97;21.58;;;0.90;99.90;;;;;;5047443;28;20029;-54
2022/04/02 12:05:53;;;;;;;28.67;19.35;;;1.00;99.90;;;;;;5050159;28;20017;-54
2022/04/02 12:08:29;;;;;;;33.38;18.95;;;0.90;99.90;;;;;;5049216;28;20025;-53
2022/04/02 12:10:55;;;;;;;33.25;20.48;;;0.90;99.90;;;;;;5047900;28;20715;-52
2022/04/02 12:13:21;;;;;;;29.73;20.52;;;1.00;99.90;;;;;;5049705;28;20013;-54
2022/04/02 12:16:09;;;;;;;33.63;21.00;;;1.00;99.90;;;;;;5048814;28;20037;-54
2022/04/02 12:19:02;;;;;;;34.53;21.05;;;1.10;99.90;;;;;;5049700;28;20049;-52
2022/04/02 12:21:41;;;;;;;34.38;21.35;;;1.10;99.90;;;;;;5049668;28;20037;-54
2022/04/02 12:24:08;;;;;;;34.30;19.73;;;1.10;99.90;;;;;;5049259;28;20128;-54
2022/04/02 12:26:34;;;;;;;31.50;20.10;;;1.00;99.90;;;;;;5049255;28;20029;-53
2022/04/02 12:29:02;;;;;;;37.85;22.52;;;1.00;99.90;;;;;;5047724;28;20048;-51
2022/04/02 12:31:30;;;;;;;38.83;22.15;;;0.90;99.90;;;;;;5049833;28;20025;-54
2022/04/02 12:33:58;;;;;;;46.03;25.63;;;0.90;99.90;;;;;;5047844;28;20025;-54
2022/04/02 12:36:39;;;;;;;44.70;24.38;;;0.90;99.90;;;;;;5049732;28;20020;-53
2022/04/02 12:39:08;;;;;;;34.42;20.88;;;0.80;99.90;;;;;;5043816;28;20441;-54
2022/04/02 12:41:49;;;;;;;36.85;21.60;;;0.80;99.90;;;;;;5049742;28;20025;-53
2022/04/02 12:44:20;;;;;;;42.72;23.65;;;0.80;99.90;;;;;;5049216;28;20111;-54
2022/04/02 12:46:46;;;;;;;39.08;25.05;;;0.80;99.90;;;;;;5049841;28;20032;-52
2022/04/02 12:49:32;;;;;;;37.67;22.05;;;0.90;99.90;;;;;;5047456;28;20095;-52
2022/04/02 12:52:20;;;;;;;38.67;23.42;;;0.80;99.90;;;;;;5049065;28;20055;-53
2022/04/02 12:54:52;;;;;;;36.15;21.10;;;0.80;99.90;;;;;;5049122;28;20480;-53
2022/04/02 12:57:18;;;;;;;37.85;22.10;;;0.80;99.90;;;;;;5049053;28;20767;-51
2022/04/02 12:59:51;;;;;;;44.55;24.60;;;0.80;99.90;;;;;;5048211;28;20049;-52